<?xml version="1.0" encoding="UTF-8" standalone="no" ?>
<gpx xmlns="http://www.topografix.com/GPX/1/1" creator="MapSource 6.16.3" version="1.1" xmlns:xsi="http://www.w3.org/2001/XMLSchema-instance" xsi:schemaLocation="http://www.topografix.com/GPX/1/1 http://www.topografix.com/GPX/1/1/gpx.xsd">

  <metadata>
    <link href="http://www.garmin.com">
      <text>Garmin International</text>
    </link>
    <time>2015-07-08T06:04:43Z</time>
    <bounds maxlat="54.765396974980831" maxlon="17.617243845015764" minlat="54.629938211292028" minlon="17.464854810386896"/>
  </metadata>

  <trk>
    <name>ACTIVE LOG 022</name>
    <extensions>
      <gpxx:TrackExtension xmlns:gpxx="http://www.garmin.com/xmlschemas/GpxExtensions/v3">
        <gpxx:DisplayColor>Green</gpxx:DisplayColor>
      </gpxx:TrackExtension>
    </extensions>
    <trkseg>
      <trkpt lat="54.630117667838931" lon="17.464854810386896">
        <ele>-0.8240966796875</ele>
        <time>2015-07-03T06:22:28Z</time>
      </trkpt>
      <trkpt lat="54.629938211292028" lon="17.465152787044644">
        <ele>26.0928955078125</ele>
        <time>2015-07-03T06:24:13Z</time>
      </trkpt>
      <trkpt lat="54.629995292052627" lon="17.465429222211242">
        <ele>26.5736083984375</ele>
        <time>2015-07-03T06:24:25Z</time>
      </trkpt>
      <trkpt lat="54.630007445812225" lon="17.465841360390186">
        <ele>27.0543212890625</ele>
        <time>2015-07-03T06:24:36Z</time>
      </trkpt>
      <trkpt lat="54.630011133849621" lon="17.465968010947108">
        <ele>27.0543212890625</ele>
        <time>2015-07-03T06:24:38Z</time>
      </trkpt>
      <trkpt lat="54.630024712532759" lon="17.467916384339333">
        <ele>27.0543212890625</ele>
        <time>2015-07-03T06:25:01Z</time>
      </trkpt>
      <trkpt lat="54.630045332014561" lon="17.471033362671733">
        <ele>27.0543212890625</ele>
        <time>2015-07-03T06:25:35Z</time>
      </trkpt>
      <trkpt lat="54.630103250965476" lon="17.473310474306345">
        <ele>25.6123046875</ele>
        <time>2015-07-03T06:26:02Z</time>
      </trkpt>
      <trkpt lat="54.630160331726074" lon="17.474958188831806">
        <ele>26.0928955078125</ele>
        <time>2015-07-03T06:26:22Z</time>
      </trkpt>
      <trkpt lat="54.630244737491012" lon="17.476836238056421">
        <ele>25.6123046875</ele>
        <time>2015-07-03T06:26:47Z</time>
      </trkpt>
      <trkpt lat="54.630256723612547" lon="17.47761894017458">
        <ele>25.6123046875</ele>
        <time>2015-07-03T06:26:58Z</time>
      </trkpt>
      <trkpt lat="54.630476664751768" lon="17.489348324015737">
        <ele>32.341552734375</ele>
        <time>2015-07-03T06:29:51Z</time>
      </trkpt>
      <trkpt lat="54.630214730277658" lon="17.492996379733086">
        <ele>35.7060546875</ele>
        <time>2015-07-03T06:31:14Z</time>
      </trkpt>
      <trkpt lat="54.631483415141702" lon="17.498963791877031">
        <ele>28.4962158203125</ele>
        <time>2015-07-03T06:32:09Z</time>
      </trkpt>
      <trkpt lat="54.6326594799757" lon="17.505611395463347">
        <ele>22.24755859375</ele>
        <time>2015-07-03T06:33:14Z</time>
      </trkpt>
      <trkpt lat="54.633063739165664" lon="17.50854916870594">
        <ele>18.883056640625</ele>
        <time>2015-07-03T06:33:50Z</time>
      </trkpt>
      <trkpt lat="54.633367247879505" lon="17.510599549859762">
        <ele>18.883056640625</ele>
        <time>2015-07-03T06:34:15Z</time>
      </trkpt>
      <trkpt lat="54.635730525478721" lon="17.520471336320043">
        <ele>18.40234375</ele>
        <time>2015-07-03T06:36:56Z</time>
      </trkpt>
      <trkpt lat="54.636164624243975" lon="17.522271433845162">
        <ele>17.9217529296875</ele>
        <time>2015-07-03T06:37:19Z</time>
      </trkpt>
      <trkpt lat="54.637912670150399" lon="17.52968774177134">
        <ele>13.1151123046875</ele>
        <time>2015-07-03T06:38:41Z</time>
      </trkpt>
      <trkpt lat="54.639928601682186" lon="17.533762603998184">
        <ele>11.6732177734375</ele>
        <time>2015-07-03T06:39:47Z</time>
      </trkpt>
      <trkpt lat="54.642795547842979" lon="17.539457939565182">
        <ele>16.479736328125</ele>
        <time>2015-07-03T06:41:32Z</time>
      </trkpt>
      <trkpt lat="54.64282538741827" lon="17.54210963845253">
        <ele>12.6343994140625</ele>
        <time>2015-07-03T06:42:01Z</time>
      </trkpt>
      <trkpt lat="54.643394602462649" lon="17.542831907048821">
        <ele>10.7117919921875</ele>
        <time>2015-07-03T06:42:15Z</time>
      </trkpt>
      <trkpt lat="54.644659850746393" lon="17.545513948425651">
        <ele>9.7506103515625</ele>
        <time>2015-07-03T06:42:56Z</time>
      </trkpt>
      <trkpt lat="54.644843079149723" lon="17.546274438500404">
        <ele>9.7506103515625</ele>
        <time>2015-07-03T06:43:08Z</time>
      </trkpt>
      <trkpt lat="54.645210290327668" lon="17.55116980522871">
        <ele>11.1925048828125</ele>
        <time>2015-07-03T06:44:14Z</time>
      </trkpt>
      <trkpt lat="54.645283631980419" lon="17.551580015569925">
        <ele>11.1925048828125</ele>
        <time>2015-07-03T06:44:20Z</time>
      </trkpt>
      <trkpt lat="54.645399218425155" lon="17.551881177350879">
        <ele>11.1925048828125</ele>
        <time>2015-07-03T06:44:25Z</time>
      </trkpt>
      <trkpt lat="54.645938677713275" lon="17.552333548665047">
        <ele>9.7506103515625</ele>
        <time>2015-07-03T06:44:38Z</time>
      </trkpt>
      <trkpt lat="54.649595199152827" lon="17.554762121289968">
        <ele>8.7891845703125</ele>
        <time>2015-07-03T06:46:02Z</time>
      </trkpt>
      <trkpt lat="54.650145722553134" lon="17.55541012622416">
        <ele>9.2698974609375</ele>
        <time>2015-07-03T06:46:14Z</time>
      </trkpt>
      <trkpt lat="54.651955123990774" lon="17.559153903275728">
        <ele>7.827880859375</ele>
        <time>2015-07-03T06:47:16Z</time>
      </trkpt>
      <trkpt lat="54.654674548655748" lon="17.565433792769909">
        <ele>4.94384765625</ele>
        <time>2015-07-03T06:49:08Z</time>
      </trkpt>
      <trkpt lat="54.654821902513504" lon="17.566097220405936">
        <ele>4.94384765625</ele>
        <time>2015-07-03T06:49:18Z</time>
      </trkpt>
      <trkpt lat="54.654967496171594" lon="17.567893378436565">
        <ele>5.9052734375</ele>
        <time>2015-07-03T06:49:39Z</time>
      </trkpt>
      <trkpt lat="54.655208140611649" lon="17.569686351343989">
        <ele>6.3858642578125</ele>
        <time>2015-07-03T06:50:03Z</time>
      </trkpt>
      <trkpt lat="54.656657120212913" lon="17.575282277539372">
        <ele>4.94384765625</ele>
        <time>2015-07-03T06:51:26Z</time>
      </trkpt>
      <trkpt lat="54.657675353810191" lon="17.579020606353879">
        <ele>3.501953125</ele>
        <time>2015-07-03T06:52:21Z</time>
      </trkpt>
      <trkpt lat="54.657871909439564" lon="17.579757627099752">
        <ele>3.501953125</ele>
        <time>2015-07-03T06:52:32Z</time>
      </trkpt>
      <trkpt lat="54.658538019284606" lon="17.582775028422475">
        <ele>3.982666015625</ele>
        <time>2015-07-03T06:53:15Z</time>
      </trkpt>
      <trkpt lat="54.659573351964355" lon="17.589326575398445">
        <ele>5.9052734375</ele>
        <time>2015-07-03T06:54:44Z</time>
      </trkpt>
      <trkpt lat="54.65993570163846" lon="17.591494470834732">
        <ele>6.866455078125</ele>
        <time>2015-07-03T06:55:15Z</time>
      </trkpt>
      <trkpt lat="54.661423489451408" lon="17.600353052839637">
        <ele>3.021240234375</ele>
        <time>2015-07-03T06:57:32Z</time>
      </trkpt>
      <trkpt lat="54.662097226828337" lon="17.604167740792036">
        <ele>4.94384765625</ele>
        <time>2015-07-03T06:58:26Z</time>
      </trkpt>
      <trkpt lat="54.662669124081731" lon="17.606457425281405">
        <ele>4.4632568359375</ele>
        <time>2015-07-03T06:59:02Z</time>
      </trkpt>
      <trkpt lat="54.665005998685956" lon="17.610656004399061">
        <ele>7.34716796875</ele>
        <time>2015-07-03T07:01:02Z</time>
      </trkpt>
      <trkpt lat="54.666922772303224" lon="17.614084957167506">
        <ele>15.5184326171875</ele>
        <time>2015-07-03T07:02:44Z</time>
      </trkpt>
      <trkpt lat="54.667308339849114" lon="17.614347729831934">
        <ele>15.9990234375</ele>
        <time>2015-07-03T07:02:51Z</time>
      </trkpt>
      <trkpt lat="54.667866323143244" lon="17.614714270457625">
        <ele>15.0377197265625</ele>
        <time>2015-07-03T07:03:02Z</time>
      </trkpt>
      <trkpt lat="54.66882630251348" lon="17.615146692842245">
        <ele>12.15380859375</ele>
        <time>2015-07-03T07:03:20Z</time>
      </trkpt>
      <trkpt lat="54.669722998514771" lon="17.616122849285603">
        <ele>12.15380859375</ele>
        <time>2015-07-03T07:03:44Z</time>
      </trkpt>
      <trkpt lat="54.671072317287326" lon="17.617243845015764">
        <ele>11.1925048828125</ele>
        <time>2015-07-03T07:04:36Z</time>
      </trkpt>
      <trkpt lat="54.671679334715009" lon="17.61674671433866">
        <ele>11.1925048828125</ele>
        <time>2015-07-03T07:04:52Z</time>
      </trkpt>
      <trkpt lat="54.671838423237205" lon="17.616694662719965">
        <ele>11.1925048828125</ele>
        <time>2015-07-03T07:05:00Z</time>
      </trkpt>
      <trkpt lat="54.671887373551726" lon="17.616656441241503">
        <ele>11.6732177734375</ele>
        <time>2015-07-03T07:05:11Z</time>
      </trkpt>
      <trkpt lat="54.671933809295297" lon="17.616669181734324">
        <ele>11.1925048828125</ele>
        <time>2015-07-03T07:05:27Z</time>
      </trkpt>
      <trkpt lat="54.671648321673274" lon="17.616473045200109">
        <ele>-60.42578125</ele>
        <time>2015-07-03T07:16:25Z</time>
      </trkpt>
      <trkpt lat="54.671921823173761" lon="17.616402134299278">
        <ele>27.534912109375</ele>
        <time>2015-07-03T07:18:25Z</time>
      </trkpt>
      <trkpt lat="54.672001786530018" lon="17.616286715492606">
        <ele>25.6123046875</ele>
        <time>2015-07-03T07:18:29Z</time>
      </trkpt>
      <trkpt lat="54.673217497766018" lon="17.613953864201903">
        <ele>16.479736328125</ele>
        <time>2015-07-03T07:19:14Z</time>
      </trkpt>
      <trkpt lat="54.673758801072836" lon="17.612087968736887">
        <ele>14.076416015625</ele>
        <time>2015-07-03T07:19:39Z</time>
      </trkpt>
      <trkpt lat="54.676519129425287" lon="17.602427992969751">
        <ele>14.076416015625</ele>
        <time>2015-07-03T07:21:59Z</time>
      </trkpt>
      <trkpt lat="54.67681878246367" lon="17.601160816848278">
        <ele>12.6343994140625</ele>
        <time>2015-07-03T07:22:21Z</time>
      </trkpt>
      <trkpt lat="54.67747894115746" lon="17.598067726939917">
        <ele>11.6732177734375</ele>
        <time>2015-07-03T07:23:15Z</time>
      </trkpt>
      <trkpt lat="54.677509870380163" lon="17.596696866676211">
        <ele>11.6732177734375</ele>
        <time>2015-07-03T07:23:37Z</time>
      </trkpt>
      <trkpt lat="54.677946399897337" lon="17.596476674079895">
        <ele>8.7891845703125</ele>
        <time>2015-07-03T07:23:51Z</time>
      </trkpt>
      <trkpt lat="54.678171873092651" lon="17.596452534198761">
        <ele>8.7891845703125</ele>
        <time>2015-07-03T07:24:00Z</time>
      </trkpt>
      <trkpt lat="54.679945483803749" lon="17.596334517002106">
        <ele>14.076416015625</ele>
        <time>2015-07-03T07:25:02Z</time>
      </trkpt>
      <trkpt lat="54.681506361812353" lon="17.596141984686255">
        <ele>20.8056640625</ele>
        <time>2015-07-03T07:26:09Z</time>
      </trkpt>
      <trkpt lat="54.682249501347542" lon="17.596060428768396">
        <ele>23.208984375</ele>
        <time>2015-07-03T07:26:38Z</time>
      </trkpt>
      <trkpt lat="54.683347530663013" lon="17.595920031890273">
        <ele>25.1317138671875</ele>
        <time>2015-07-03T07:27:15Z</time>
      </trkpt>
      <trkpt lat="54.684807658195496" lon="17.595963031053543">
        <ele>29.45751953125</ele>
        <time>2015-07-03T07:28:07Z</time>
      </trkpt>
      <trkpt lat="54.685025252401829" lon="17.595960097387433">
        <ele>33.3028564453125</ele>
        <time>2015-07-03T07:29:12Z</time>
      </trkpt>
      <trkpt lat="54.685334544628859" lon="17.595971496775746">
        <ele>36.66748046875</ele>
        <time>2015-07-03T07:29:21Z</time>
      </trkpt>
      <trkpt lat="54.685936365276575" lon="17.595990523695946">
        <ele>35.7060546875</ele>
        <time>2015-07-03T07:29:39Z</time>
      </trkpt>
      <trkpt lat="54.695443203672767" lon="17.591219041496515">
        <ele>37.1480712890625</ele>
        <time>2015-07-03T07:33:31Z</time>
      </trkpt>
      <trkpt lat="54.703626791015267" lon="17.585603836923838">
        <ele>36.186767578125</ele>
        <time>2015-07-03T07:36:15Z</time>
      </trkpt>
      <trkpt lat="54.703985704109073" lon="17.584758689627051">
        <ele>32.341552734375</ele>
        <time>2015-07-03T07:36:21Z</time>
      </trkpt>
      <trkpt lat="54.705135533586144" lon="17.584027284756303">
        <ele>30.4188232421875</ele>
        <time>2015-07-03T07:36:42Z</time>
      </trkpt>
      <trkpt lat="54.706913251429796" lon="17.582800844684243">
        <ele>29.45751953125</ele>
        <time>2015-07-03T07:37:16Z</time>
      </trkpt>
      <trkpt lat="54.706934122368693" lon="17.582856500521302">
        <ele>29.45751953125</ele>
        <time>2015-07-03T07:37:19Z</time>
      </trkpt>
      <trkpt lat="54.706936217844486" lon="17.582845520228148">
        <ele>29.45751953125</ele>
        <time>2015-07-03T07:37:21Z</time>
      </trkpt>
      <trkpt lat="54.706806214526296" lon="17.583025731146336">
        <ele>26.0928955078125</ele>
        <time>2015-07-03T07:37:32Z</time>
      </trkpt>
      <trkpt lat="54.706583926454186" lon="17.583089852705598">
        <ele>59.2584228515625</ele>
        <time>2015-07-03T07:41:45Z</time>
      </trkpt>
      <trkpt lat="54.706725664436817" lon="17.58311877027154">
        <ele>68.87158203125</ele>
        <time>2015-07-03T07:43:44Z</time>
      </trkpt>
      <trkpt lat="54.706761790439487" lon="17.582836970686913">
        <ele>64.0650634765625</ele>
        <time>2015-07-03T07:48:20Z</time>
      </trkpt>
      <trkpt lat="54.713149974122643" lon="17.57842113263905">
        <ele>52.048583984375</ele>
        <time>2015-07-03T07:50:07Z</time>
      </trkpt>
      <trkpt lat="54.722866360098124" lon="17.571647213771939">
        <ele>31.380126953125</ele>
        <time>2015-07-03T07:53:15Z</time>
      </trkpt>
      <trkpt lat="54.724256582558155" lon="17.570694945752621">
        <ele>30.8995361328125</ele>
        <time>2015-07-03T07:53:46Z</time>
      </trkpt>
      <trkpt lat="54.725994989275932" lon="17.56952315568924">
        <ele>30.4188232421875</ele>
        <time>2015-07-03T07:54:25Z</time>
      </trkpt>
      <trkpt lat="54.727276330813766" lon="17.569417878985405">
        <ele>28.4962158203125</ele>
        <time>2015-07-03T07:54:49Z</time>
      </trkpt>
      <trkpt lat="54.72799189388752" lon="17.569268764927983">
        <ele>27.0543212890625</ele>
        <time>2015-07-03T07:55:02Z</time>
      </trkpt>
      <trkpt lat="54.731846731156111" lon="17.564107105135918">
        <ele>20.324951171875</ele>
        <time>2015-07-03T07:56:31Z</time>
      </trkpt>
      <trkpt lat="54.73193222656846" lon="17.563952207565308">
        <ele>17.9217529296875</ele>
        <time>2015-07-03T07:56:34Z</time>
      </trkpt>
      <trkpt lat="54.732050076127052" lon="17.563762608915567">
        <ele>17.441162109375</ele>
        <time>2015-07-03T07:56:37Z</time>
      </trkpt>
      <trkpt lat="54.732321733608842" lon="17.563397996127605">
        <ele>16.479736328125</ele>
        <time>2015-07-03T07:56:44Z</time>
      </trkpt>
      <trkpt lat="54.732527174055576" lon="17.563172103837132">
        <ele>16.479736328125</ele>
        <time>2015-07-03T07:56:49Z</time>
      </trkpt>
      <trkpt lat="54.733128575608134" lon="17.562356041744351">
        <ele>16.479736328125</ele>
        <time>2015-07-03T07:57:05Z</time>
      </trkpt>
      <trkpt lat="54.734617033973336" lon="17.560465252026916">
        <ele>16.479736328125</ele>
        <time>2015-07-03T07:57:42Z</time>
      </trkpt>
      <trkpt lat="54.736381508409977" lon="17.558465665206313">
        <ele>15.9990234375</ele>
        <time>2015-07-03T07:58:25Z</time>
      </trkpt>
      <trkpt lat="54.738114047795534" lon="17.557464279234409">
        <ele>14.5570068359375</ele>
        <time>2015-07-03T07:59:03Z</time>
      </trkpt>
      <trkpt lat="54.742457633838058" lon="17.556615443900228">
        <ele>16.479736328125</ele>
        <time>2015-07-03T08:00:38Z</time>
      </trkpt>
      <trkpt lat="54.746577003970742" lon="17.555785635486245">
        <ele>10.7117919921875</ele>
        <time>2015-07-03T08:02:16Z</time>
      </trkpt>
      <trkpt lat="54.748027073219419" lon="17.556624328717589">
        <ele>11.1925048828125</ele>
        <time>2015-07-03T08:02:50Z</time>
      </trkpt>
      <trkpt lat="54.748231004923582" lon="17.556755505502224">
        <ele>11.1925048828125</ele>
        <time>2015-07-03T08:02:55Z</time>
      </trkpt>
      <trkpt lat="54.750699978321791" lon="17.557994183152914">
        <ele>8.7891845703125</ele>
        <time>2015-07-03T08:03:50Z</time>
      </trkpt>
      <trkpt lat="54.752133451402187" lon="17.558781579136848">
        <ele>7.34716796875</ele>
        <time>2015-07-03T08:04:26Z</time>
      </trkpt>
      <trkpt lat="54.753184458240867" lon="17.55871812812984">
        <ele>7.827880859375</ele>
        <time>2015-07-03T08:04:50Z</time>
      </trkpt>
      <trkpt lat="54.753446225076914" lon="17.558743776753545">
        <ele>7.34716796875</ele>
        <time>2015-07-03T08:05:01Z</time>
      </trkpt>
      <trkpt lat="54.753872947767377" lon="17.558813262730837">
        <ele>8.30859375</ele>
        <time>2015-07-03T08:05:21Z</time>
      </trkpt>
      <trkpt lat="54.753917623311281" lon="17.558780908584595">
        <ele>10.231201171875</ele>
        <time>2015-07-03T08:05:25Z</time>
      </trkpt>
      <trkpt lat="54.754726979881525" lon="17.558763138949871">
        <ele>10.231201171875</ele>
        <time>2015-07-03T08:05:50Z</time>
      </trkpt>
      <trkpt lat="54.7558041382581" lon="17.558249663561583">
        <ele>9.7506103515625</ele>
        <time>2015-07-03T08:06:25Z</time>
      </trkpt>
      <trkpt lat="54.756110412999988" lon="17.558144051581621">
        <ele>7.827880859375</ele>
        <time>2015-07-03T08:06:44Z</time>
      </trkpt>
      <trkpt lat="54.75607194006443" lon="17.558089653030038">
        <ele>8.30859375</ele>
        <time>2015-07-03T08:07:00Z</time>
      </trkpt>
      <trkpt lat="54.75604847073555" lon="17.558156792074442">
        <ele>15.5184326171875</ele>
        <time>2015-07-03T08:07:56Z</time>
      </trkpt>
      <trkpt lat="54.756049057468772" lon="17.5581796746701">
        <ele>13.5958251953125</ele>
        <time>2015-07-03T08:08:14Z</time>
      </trkpt>
      <trkpt lat="54.75605777464807" lon="17.558006756007671">
        <ele>11.6732177734375</ele>
        <time>2015-07-03T08:13:05Z</time>
      </trkpt>
      <trkpt lat="54.756356757134199" lon="17.557879602536559">
        <ele>11.6732177734375</ele>
        <time>2015-07-03T08:13:17Z</time>
      </trkpt>
      <trkpt lat="54.756811978295445" lon="17.557649938389659">
        <ele>9.2698974609375</ele>
        <time>2015-07-03T08:13:41Z</time>
      </trkpt>
      <trkpt lat="54.756900491192937" lon="17.557590007781982">
        <ele>10.231201171875</ele>
        <time>2015-07-03T08:13:48Z</time>
      </trkpt>
      <trkpt lat="54.756843913346529" lon="17.557489760220051">
        <ele>8.7891845703125</ele>
        <time>2015-07-03T08:13:53Z</time>
      </trkpt>
      <trkpt lat="54.756784150376916" lon="17.557451035827398">
        <ele>7.827880859375</ele>
        <time>2015-07-03T08:14:09Z</time>
      </trkpt>
      <trkpt lat="54.756799740716815" lon="17.557511553168297">
        <ele>4.4632568359375</ele>
        <time>2015-07-03T08:18:11Z</time>
      </trkpt>
      <trkpt lat="54.757977398112416" lon="17.556541515514255">
        <ele>2.06005859375</ele>
        <time>2015-07-03T08:19:06Z</time>
      </trkpt>
      <trkpt lat="54.758329438045621" lon="17.5562784075737">
        <ele>2.06005859375</ele>
        <time>2015-07-03T08:19:27Z</time>
      </trkpt>
      <trkpt lat="54.758667144924402" lon="17.55608051083982">
        <ele>4.4632568359375</ele>
        <time>2015-07-03T08:19:48Z</time>
      </trkpt>
      <trkpt lat="54.758689776062965" lon="17.556062825024128">
        <ele>4.4632568359375</ele>
        <time>2015-07-03T08:19:56Z</time>
      </trkpt>
      <trkpt lat="54.759540287777781" lon="17.555218013003469">
        <ele>5.9052734375</ele>
        <time>2015-07-03T08:20:36Z</time>
      </trkpt>
      <trkpt lat="54.759910935536027" lon="17.554877623915672">
        <ele>7.34716796875</ele>
        <time>2015-07-03T08:20:57Z</time>
      </trkpt>
      <trkpt lat="54.760010680183768" lon="17.554784752428532">
        <ele>7.34716796875</ele>
        <time>2015-07-03T08:21:02Z</time>
      </trkpt>
      <trkpt lat="54.760080752894282" lon="17.554766898974776">
        <ele>6.866455078125</ele>
        <time>2015-07-03T08:21:13Z</time>
      </trkpt>
      <trkpt lat="54.760051919147372" lon="17.554760025814176">
        <ele>11.6732177734375</ele>
        <time>2015-07-03T08:22:20Z</time>
      </trkpt>
      <trkpt lat="54.760165577754378" lon="17.554665561765432">
        <ele>7.34716796875</ele>
        <time>2015-07-03T08:22:53Z</time>
      </trkpt>
      <trkpt lat="54.760175300762057" lon="17.554653994739056">
        <ele>6.866455078125</ele>
        <time>2015-07-03T08:22:54Z</time>
      </trkpt>
      <trkpt lat="54.760705204680562" lon="17.554152421653271">
        <ele>6.3858642578125</ele>
        <time>2015-07-03T08:24:14Z</time>
      </trkpt>
      <trkpt lat="54.761067638173699" lon="17.553903982043266">
        <ele>9.7506103515625</ele>
        <time>2015-07-03T08:24:49Z</time>
      </trkpt>
      <trkpt lat="54.761423617601395" lon="17.553527718409896">
        <ele>5.9052734375</ele>
        <time>2015-07-03T08:27:17Z</time>
      </trkpt>
      <trkpt lat="54.761516321450472" lon="17.55341799929738">
        <ele>6.3858642578125</ele>
        <time>2015-07-03T08:27:33Z</time>
      </trkpt>
      <trkpt lat="54.762356607243419" lon="17.55259221419692">
        <ele>5.9052734375</ele>
        <time>2015-07-03T08:29:12Z</time>
      </trkpt>
      <trkpt lat="54.762421064078808" lon="17.55254234187305">
        <ele>3.982666015625</ele>
        <time>2015-07-03T08:29:29Z</time>
      </trkpt>
    </trkseg>
  </trk>

  <trk>
    <name>ACTIVE LOG 023</name>
    <extensions>
      <gpxx:TrackExtension xmlns:gpxx="http://www.garmin.com/xmlschemas/GpxExtensions/v3">
        <gpxx:DisplayColor>Green</gpxx:DisplayColor>
      </gpxx:TrackExtension>
    </extensions>
    <trkseg>
      <trkpt lat="54.764906466007233" lon="17.532792817801237">
        <ele>21.286376953125</ele>
        <time>2015-07-03T13:53:58Z</time>
      </trkpt>
      <trkpt lat="54.764938149601221" lon="17.532870098948479">
        <ele>5.9052734375</ele>
        <time>2015-07-03T13:54:51Z</time>
      </trkpt>
      <trkpt lat="54.764798926189542" lon="17.53300161100924">
        <ele>5.9052734375</ele>
        <time>2015-07-03T13:55:27Z</time>
      </trkpt>
      <trkpt lat="54.764630114659667" lon="17.533069420605898">
        <ele>6.3858642578125</ele>
        <time>2015-07-03T13:55:50Z</time>
      </trkpt>
      <trkpt lat="54.764204146340489" lon="17.533357841894031">
        <ele>13.1151123046875</ele>
        <time>2015-07-03T13:56:50Z</time>
      </trkpt>
      <trkpt lat="54.763925699517131" lon="17.533546518534422">
        <ele>9.2698974609375</ele>
        <time>2015-07-03T13:57:02Z</time>
      </trkpt>
      <trkpt lat="54.763341983780265" lon="17.534082708880305">
        <ele>1.0986328125</ele>
        <time>2015-07-03T13:57:33Z</time>
      </trkpt>
      <trkpt lat="54.762042202055454" lon="17.537173284217715">
        <ele>-5.14990234375</ele>
        <time>2015-07-03T13:58:51Z</time>
      </trkpt>
      <trkpt lat="54.760179407894611" lon="17.541643939912319">
        <ele>-6.1112060546875</ele>
        <time>2015-07-03T13:59:43Z</time>
      </trkpt>
      <trkpt lat="54.758815756067634" lon="17.544405860826373">
        <ele>-5.6304931640625</ele>
        <time>2015-07-03T14:00:31Z</time>
      </trkpt>
      <trkpt lat="54.757762653753161" lon="17.546494547277689">
        <ele>-4.6693115234375</ele>
        <time>2015-07-03T14:01:09Z</time>
      </trkpt>
      <trkpt lat="54.757675230503082" lon="17.550036152824759">
        <ele>-5.6304931640625</ele>
        <time>2015-07-03T14:02:07Z</time>
      </trkpt>
      <trkpt lat="54.757582861930132" lon="17.550082504749298">
        <ele>-4.6693115234375</ele>
        <time>2015-07-03T14:02:11Z</time>
      </trkpt>
      <trkpt lat="54.756725644692779" lon="17.549934647977352">
        <ele>-2.2659912109375</ele>
        <time>2015-07-03T14:02:32Z</time>
      </trkpt>
      <trkpt lat="54.756168583407998" lon="17.549861893057823">
        <ele>-1.7852783203125</ele>
        <time>2015-07-03T14:02:44Z</time>
      </trkpt>
      <trkpt lat="54.755383618175983" lon="17.550204545259476">
        <ele>-1.7852783203125</ele>
        <time>2015-07-03T14:03:02Z</time>
      </trkpt>
      <trkpt lat="54.748847661539912" lon="17.553938180208206">
        <ele>-2.7467041015625</ele>
        <time>2015-07-03T14:05:38Z</time>
      </trkpt>
      <trkpt lat="54.748424543067813" lon="17.554489206522703">
        <ele>-2.7467041015625</ele>
        <time>2015-07-03T14:05:50Z</time>
      </trkpt>
      <trkpt lat="54.748266125097871" lon="17.55476413294673">
        <ele>-2.7467041015625</ele>
        <time>2015-07-03T14:05:55Z</time>
      </trkpt>
      <trkpt lat="54.748020116239786" lon="17.556098196655512">
        <ele>-1.7852783203125</ele>
        <time>2015-07-03T14:06:14Z</time>
      </trkpt>
      <trkpt lat="54.748085830360651" lon="17.556173214688897">
        <ele>-2.2659912109375</ele>
        <time>2015-07-03T14:06:18Z</time>
      </trkpt>
      <trkpt lat="54.74814928136766" lon="17.556393658742309">
        <ele>-1.7852783203125</ele>
        <time>2015-07-03T14:06:25Z</time>
      </trkpt>
      <trkpt lat="54.748336533084512" lon="17.556713595986366">
        <ele>-2.2659912109375</ele>
        <time>2015-07-03T14:06:38Z</time>
      </trkpt>
      <trkpt lat="54.748209295794368" lon="17.556905625388026">
        <ele>-2.2659912109375</ele>
        <time>2015-07-03T14:06:47Z</time>
      </trkpt>
      <trkpt lat="54.748197393491864" lon="17.556931357830763">
        <ele>-3.7078857421875</ele>
        <time>2015-07-03T14:06:59Z</time>
      </trkpt>
      <trkpt lat="54.748190939426422" lon="17.556936219334602">
        <ele>-3.7078857421875</ele>
        <time>2015-07-03T14:07:14Z</time>
      </trkpt>
      <trkpt lat="54.748088680207729" lon="17.55721072666347">
        <ele>-3.227294921875</ele>
        <time>2015-07-03T14:07:25Z</time>
      </trkpt>
      <trkpt lat="54.748101169243455" lon="17.557250037789345">
        <ele>-3.227294921875</ele>
        <time>2015-07-03T14:07:26Z</time>
      </trkpt>
      <trkpt lat="54.74857491441071" lon="17.557865604758263">
        <ele>-3.227294921875</ele>
        <time>2015-07-03T14:07:44Z</time>
      </trkpt>
      <trkpt lat="54.749051677063107" lon="17.558686947450042">
        <ele>-3.7078857421875</ele>
        <time>2015-07-03T14:08:03Z</time>
      </trkpt>
      <trkpt lat="54.749579066410661" lon="17.559915399178863">
        <ele>-4.1885986328125</ele>
        <time>2015-07-03T14:08:32Z</time>
      </trkpt>
      <trkpt lat="54.749480662867427" lon="17.560113379731774">
        <ele>-4.1885986328125</ele>
        <time>2015-07-03T14:08:37Z</time>
      </trkpt>
      <trkpt lat="54.749186960980296" lon="17.561335293576121">
        <ele>-2.2659912109375</ele>
        <time>2015-07-03T14:09:25Z</time>
      </trkpt>
      <trkpt lat="54.749182350933552" lon="17.561195148155093">
        <ele>-2.2659912109375</ele>
        <time>2015-07-03T14:10:01Z</time>
      </trkpt>
      <trkpt lat="54.749086378142238" lon="17.56075032055378">
        <ele>-1.3046875</ele>
        <time>2015-07-03T14:13:14Z</time>
      </trkpt>
    </trkseg>
  </trk>

  <trk>
    <name>ACTIVE LOG 024</name>
    <extensions>
      <gpxx:TrackExtension xmlns:gpxx="http://www.garmin.com/xmlschemas/GpxExtensions/v3">
        <gpxx:DisplayColor>Green</gpxx:DisplayColor>
      </gpxx:TrackExtension>
    </extensions>
    <trkseg>
      <trkpt lat="54.749075062572956" lon="17.560805389657617">
        <ele>0.137451171875</ele>
        <time>2015-07-03T14:16:08Z</time>
      </trkpt>
      <trkpt lat="54.749198192730546" lon="17.56064479239285">
        <ele>-9.95654296875</ele>
        <time>2015-07-03T14:17:31Z</time>
      </trkpt>
    </trkseg>
  </trk>

  <trk>
    <name>ACTIVE LOG 025</name>
    <extensions>
      <gpxx:TrackExtension xmlns:gpxx="http://www.garmin.com/xmlschemas/GpxExtensions/v3">
        <gpxx:DisplayColor>Green</gpxx:DisplayColor>
      </gpxx:TrackExtension>
    </extensions>
    <trkseg>
      <trkpt lat="54.749501366168261" lon="17.560582179576159">
        <ele>-10.9178466796875</ele>
        <time>2015-07-03T14:20:22Z</time>
      </trkpt>
    </trkseg>
  </trk>

  <trk>
    <name>ACTIVE LOG 026</name>
    <extensions>
      <gpxx:TrackExtension xmlns:gpxx="http://www.garmin.com/xmlschemas/GpxExtensions/v3">
        <gpxx:DisplayColor>Green</gpxx:DisplayColor>
      </gpxx:TrackExtension>
    </extensions>
    <trkseg>
      <trkpt lat="54.749092329293489" lon="17.560697598382831">
        <ele>-8.5146484375</ele>
        <time>2015-07-03T14:24:16Z</time>
      </trkpt>
      <trkpt lat="54.749059891328216" lon="17.560656778514385">
        <ele>-8.5146484375</ele>
        <time>2015-07-03T14:24:45Z</time>
      </trkpt>
    </trkseg>
  </trk>

  <trk>
    <name>ACTIVE LOG 027</name>
    <extensions>
      <gpxx:TrackExtension xmlns:gpxx="http://www.garmin.com/xmlschemas/GpxExtensions/v3">
        <gpxx:DisplayColor>Green</gpxx:DisplayColor>
      </gpxx:TrackExtension>
    </extensions>
    <trkseg>
      <trkpt lat="54.749202886596322" lon="17.56054219789803">
        <ele>-38.7960205078125</ele>
        <time>2015-07-03T14:45:13Z</time>
      </trkpt>
      <trkpt lat="54.749167682603002" lon="17.560487296432257">
        <ele>-38.7960205078125</ele>
        <time>2015-07-03T14:46:17Z</time>
      </trkpt>
      <trkpt lat="54.749315623193979" lon="17.56041219457984">
        <ele>2.06005859375</ele>
        <time>2015-07-03T14:49:51Z</time>
      </trkpt>
      <trkpt lat="54.749639667570591" lon="17.560196947306395">
        <ele>1.579345703125</ele>
        <time>2015-07-03T14:50:14Z</time>
      </trkpt>
      <trkpt lat="54.749683756381273" lon="17.559936102479696">
        <ele>0.6180419921875</ele>
        <time>2015-07-03T14:50:19Z</time>
      </trkpt>
      <trkpt lat="54.749342696741223" lon="17.559442743659019">
        <ele>-1.3046875</ele>
        <time>2015-07-03T14:50:56Z</time>
      </trkpt>
      <trkpt lat="54.748190604150295" lon="17.557124644517899">
        <ele>-0.8240966796875</ele>
        <time>2015-07-03T14:52:02Z</time>
      </trkpt>
      <trkpt lat="54.748186664655805" lon="17.55689850077033">
        <ele>-0.8240966796875</ele>
        <time>2015-07-03T14:52:07Z</time>
      </trkpt>
      <trkpt lat="54.748274590820074" lon="17.556853657588363">
        <ele>-2.2659912109375</ele>
        <time>2015-07-03T14:52:20Z</time>
      </trkpt>
      <trkpt lat="54.748331336304545" lon="17.556765144690871">
        <ele>-2.7467041015625</ele>
        <time>2015-07-03T14:52:26Z</time>
      </trkpt>
      <trkpt lat="54.748225221410394" lon="17.556331548839808">
        <ele>-2.2659912109375</ele>
        <time>2015-07-03T14:52:38Z</time>
      </trkpt>
      <trkpt lat="54.748216085135937" lon="17.556123258545995">
        <ele>-2.7467041015625</ele>
        <time>2015-07-03T14:52:49Z</time>
      </trkpt>
      <trkpt lat="54.748109634965658" lon="17.555934330448508">
        <ele>-2.2659912109375</ele>
        <time>2015-07-03T14:53:02Z</time>
      </trkpt>
      <trkpt lat="54.748285068199039" lon="17.55510083399713">
        <ele>-2.7467041015625</ele>
        <time>2015-07-03T14:53:20Z</time>
      </trkpt>
      <trkpt lat="54.74872981198132" lon="17.554094083607197">
        <ele>-4.1885986328125</ele>
        <time>2015-07-03T14:53:45Z</time>
      </trkpt>
      <trkpt lat="54.74963815882802" lon="17.553441887721419">
        <ele>-5.14990234375</ele>
        <time>2015-07-03T14:54:15Z</time>
      </trkpt>
      <trkpt lat="54.752946998924017" lon="17.551702642813325">
        <ele>-5.14990234375</ele>
        <time>2015-07-03T14:56:01Z</time>
      </trkpt>
      <trkpt lat="54.756704941391945" lon="17.549811685457826">
        <ele>-4.6693115234375</ele>
        <time>2015-07-03T14:58:08Z</time>
      </trkpt>
      <trkpt lat="54.756857240572572" lon="17.549733398482203">
        <ele>-4.1885986328125</ele>
        <time>2015-07-03T14:58:14Z</time>
      </trkpt>
      <trkpt lat="54.757674308493733" lon="17.549858205020428">
        <ele>-3.227294921875</ele>
        <time>2015-07-03T14:58:38Z</time>
      </trkpt>
      <trkpt lat="54.757730634883046" lon="17.549699116498232">
        <ele>-2.2659912109375</ele>
        <time>2015-07-03T14:58:44Z</time>
      </trkpt>
      <trkpt lat="54.757699873298407" lon="17.548746010288596">
        <ele>-5.14990234375</ele>
        <time>2015-07-03T14:59:03Z</time>
      </trkpt>
      <trkpt lat="54.757707668468356" lon="17.547618392854929">
        <ele>-4.1885986328125</ele>
        <time>2015-07-03T14:59:26Z</time>
      </trkpt>
      <trkpt lat="54.75772493518889" lon="17.54695194773376">
        <ele>-4.1885986328125</ele>
        <time>2015-07-03T14:59:44Z</time>
      </trkpt>
      <trkpt lat="54.757728120312095" lon="17.546902829781175">
        <ele>-4.1885986328125</ele>
        <time>2015-07-03T15:00:02Z</time>
      </trkpt>
      <trkpt lat="54.758991273120046" lon="17.544171754270792">
        <ele>-3.7078857421875</ele>
        <time>2015-07-03T15:01:02Z</time>
      </trkpt>
      <trkpt lat="54.759426545351744" lon="17.543226610869169">
        <ele>-4.1885986328125</ele>
        <time>2015-07-03T15:01:27Z</time>
      </trkpt>
      <trkpt lat="54.759887717664242" lon="17.542231846600771">
        <ele>-3.7078857421875</ele>
        <time>2015-07-03T15:01:51Z</time>
      </trkpt>
      <trkpt lat="54.760757172480226" lon="17.540342230349779">
        <ele>-2.2659912109375</ele>
        <time>2015-07-03T15:02:35Z</time>
      </trkpt>
      <trkpt lat="54.761369470506907" lon="17.53872980363667">
        <ele>-1.7852783203125</ele>
        <time>2015-07-03T15:03:15Z</time>
      </trkpt>
      <trkpt lat="54.761718744412065" lon="17.537661027163267">
        <ele>-1.7852783203125</ele>
        <time>2015-07-03T15:03:35Z</time>
      </trkpt>
      <trkpt lat="54.761986043304205" lon="17.536871284246445">
        <ele>-1.7852783203125</ele>
        <time>2015-07-03T15:03:49Z</time>
      </trkpt>
      <trkpt lat="54.762140437960625" lon="17.536507174372673">
        <ele>-1.7852783203125</ele>
        <time>2015-07-03T15:03:56Z</time>
      </trkpt>
      <trkpt lat="54.762369096279144" lon="17.535772332921624">
        <ele>-1.7852783203125</ele>
        <time>2015-07-03T15:04:10Z</time>
      </trkpt>
      <trkpt lat="54.762692637741566" lon="17.534822579473257">
        <ele>-1.7852783203125</ele>
        <time>2015-07-03T15:04:29Z</time>
      </trkpt>
      <trkpt lat="54.763224553316832" lon="17.53411615267396">
        <ele>-1.3046875</ele>
        <time>2015-07-03T15:04:52Z</time>
      </trkpt>
      <trkpt lat="54.763514902442694" lon="17.53379755653441">
        <ele>-1.3046875</ele>
        <time>2015-07-03T15:05:08Z</time>
      </trkpt>
      <trkpt lat="54.76399309001863" lon="17.533470327034593">
        <ele>-1.3046875</ele>
        <time>2015-07-03T15:05:27Z</time>
      </trkpt>
      <trkpt lat="54.764574039727449" lon="17.533173356205225">
        <ele>-1.3046875</ele>
        <time>2015-07-03T15:05:50Z</time>
      </trkpt>
      <trkpt lat="54.764774031937122" lon="17.533012591302395">
        <ele>-1.3046875</ele>
        <time>2015-07-03T15:06:09Z</time>
      </trkpt>
      <trkpt lat="54.764785934239626" lon="17.532999766990542">
        <ele>-1.3046875</ele>
        <time>2015-07-03T15:06:20Z</time>
      </trkpt>
      <trkpt lat="54.764863550662994" lon="17.532963138073683">
        <ele>-1.3046875</ele>
        <time>2015-07-03T15:06:26Z</time>
      </trkpt>
      <trkpt lat="54.765025824308395" lon="17.53290094435215">
        <ele>-0.8240966796875</ele>
        <time>2015-07-03T15:06:44Z</time>
      </trkpt>
      <trkpt lat="54.765396974980831" lon="17.532789800316095">
        <ele>-6.1112060546875</ele>
        <time>2015-07-03T15:10:10Z</time>
      </trkpt>
    </trkseg>
  </trk>

  <trk>
    <name>ACTIVE LOG 028</name>
    <extensions>
      <gpxx:TrackExtension xmlns:gpxx="http://www.garmin.com/xmlschemas/GpxExtensions/v3">
        <gpxx:DisplayColor>Green</gpxx:DisplayColor>
      </gpxx:TrackExtension>
    </extensions>
    <trkseg>
      <trkpt lat="54.764942340552807" lon="17.532934136688709">
        <ele>13.5958251953125</ele>
        <time>2015-07-03T18:41:03Z</time>
      </trkpt>
      <trkpt lat="54.764869417995214" lon="17.532936902716756">
        <ele>-2.7467041015625</ele>
        <time>2015-07-03T18:41:18Z</time>
      </trkpt>
      <trkpt lat="54.764576135203242" lon="17.533121723681688">
        <ele>10.231201171875</ele>
        <time>2015-07-03T18:45:14Z</time>
      </trkpt>
      <trkpt lat="54.763917149975896" lon="17.533547440543771">
        <ele>8.7891845703125</ele>
        <time>2015-07-03T18:45:52Z</time>
      </trkpt>
      <trkpt lat="54.76316194050014" lon="17.534026466310024">
        <ele>3.982666015625</ele>
        <time>2015-07-03T18:46:15Z</time>
      </trkpt>
      <trkpt lat="54.76322497241199" lon="17.533803088590503">
        <ele>2.06005859375</ele>
        <time>2015-07-03T18:47:05Z</time>
      </trkpt>
      <trkpt lat="54.763227235525846" lon="17.533452557399869">
        <ele>4.4632568359375</ele>
        <time>2015-07-03T18:48:02Z</time>
      </trkpt>
      <trkpt lat="54.762906963005662" lon="17.53014363348484">
        <ele>-4.6693115234375</ele>
        <time>2015-07-03T19:03:51Z</time>
      </trkpt>
      <trkpt lat="54.762937389314175" lon="17.529829479753971">
        <ele>-3.7078857421875</ele>
        <time>2015-07-03T19:04:13Z</time>
      </trkpt>
      <trkpt lat="54.762811996042728" lon="17.528877714648843">
        <ele>-1.7852783203125</ele>
        <time>2015-07-03T19:04:48Z</time>
      </trkpt>
      <trkpt lat="54.762815097346902" lon="17.528862711042166">
        <ele>-0.8240966796875</ele>
        <time>2015-07-03T19:04:50Z</time>
      </trkpt>
      <trkpt lat="54.762858850881457" lon="17.52875299192965">
        <ele>-0.3433837890625</ele>
        <time>2015-07-03T19:04:54Z</time>
      </trkpt>
      <trkpt lat="54.762635137885809" lon="17.527222624048591">
        <ele>5.9052734375</ele>
        <time>2015-07-03T19:06:35Z</time>
      </trkpt>
      <trkpt lat="54.762738654389977" lon="17.526667155325413">
        <ele>5.9052734375</ele>
        <time>2015-07-03T19:07:03Z</time>
      </trkpt>
      <trkpt lat="54.762646201997995" lon="17.526015965268016">
        <ele>14.5570068359375</ele>
        <time>2015-07-03T19:08:22Z</time>
      </trkpt>
      <trkpt lat="54.762395583093166" lon="17.524750884622335">
        <ele>11.6732177734375</ele>
        <time>2015-07-03T19:09:37Z</time>
      </trkpt>
      <trkpt lat="54.762305142357945" lon="17.52401964738965">
        <ele>12.15380859375</ele>
        <time>2015-07-03T19:10:27Z</time>
      </trkpt>
      <trkpt lat="54.762127865105867" lon="17.52395074814558">
        <ele>11.6732177734375</ele>
        <time>2015-07-03T19:14:27Z</time>
      </trkpt>
    </trkseg>
  </trk>

</gpx>
